Time;durP1;ratioP1;P1;durP2;ratioP2;P2;SDS_P1;SDS_P2;PMS_P1;PMS_P2;Temp;Humidity;BMP_temperature;BMP_pressure;BME280_temperature;BME280_humidity;BME280_pressure;Samples;Min_cycle;Max_cycle;Signal;HPM_P1;HPM_P2
2023/09/14 00:00:20;;;;;;;31.98;26.63;;;;;;;30.00;nan;97825.66;5086437;28;20052;-62
2023/09/14 00:02:52;;;;;;;34.35;24.90;;;;;;;30.01;nan;97827.22;5083042;28;20459;-62
2023/09/14 00:05:21;;;;;;;36.00;26.65;;;;;;;29.92;nan;97824.59;5079542;28;20364;-62
2023/09/14 00:07:50;;;;;;;31.20;26.35;;;;;;;29.88;nan;97826.41;5070533;28;20052;-62
2023/09/14 00:10:20;;;;;;;28.77;24.98;;;;;;;29.95;nan;97834.84;5081455;28;20063;-62
2023/09/14 00:12:52;;;;;;;29.77;26.40;;;;;;;29.94;nan;97836.00;5081246;28;20371;-62
2023/09/14 00:15:22;;;;;;;30.63;25.92;;;;;;;29.93;nan;97839.84;5085911;28;20051;-62
2023/09/14 00:17:51;;;;;;;30.30;25.70;;;;;;;29.96;nan;97843.84;5072842;28;20175;-62
2023/09/14 00:20:23;;;;;;;29.85;25.23;;;;;;;29.92;nan;97834.75;5074926;28;20053;-62
2023/09/14 00:22:55;;;;;;;31.02;26.35;;;;;;;29.95;nan;97848.50;5082005;28;20542;-62
2023/09/14 00:25:26;;;;;;;36.28;25.88;;;;;;;29.95;nan;97851.25;5073098;28;20045;-62
2023/09/14 00:27:59;;;;;;;27.70;24.73;;;;;;;29.92;nan;97851.13;5078711;28;20156;-62
2023/09/14 00:30:29;;;;;;;31.30;25.67;;;;;;;29.93;nan;97850.78;5081158;28;20062;-62
2023/09/14 00:32:59;;;;;;;29.83;26.23;;;;;;;29.91;nan;97855.78;5083490;28;20123;-62
2023/09/14 00:35:28;;;;;;;29.27;25.33;;;;;;;29.95;nan;97850.44;5071782;28;20056;-62
2023/09/14 00:37:58;;;;;;;33.00;26.15;;;;;;;29.92;nan;97862.81;5084091;28;20140;-62
2023/09/14 00:40:28;;;;;;;28.70;25.38;;;;;;;29.93;nan;97863.63;5071995;28;20060;-62
2023/09/14 00:42:58;;;;;;;37.85;27.75;;;;;;;29.91;nan;97866.72;5082130;28;20071;-62
2023/09/14 00:45:27;;;;;;;31.77;26.33;;;;;;;29.87;nan;97872.03;5101283;28;20052;-62
2023/09/14 00:48:02;;;;;;;31.23;25.70;;;;;;;29.92;nan;97873.75;5077308;28;20499;-62
2023/09/14 00:50:33;;;;;;;35.45;28.00;;;;;;;29.87;nan;97879.41;5080977;28;20131;-62
2023/09/14 00:53:08;;;;;;;36.47;28.30;;;;;;;29.87;nan;97882.16;5080986;28;20063;-63
2023/09/14 00:55:38;;;;;;;36.22;27.23;;;;;;;29.92;nan;97881.16;5066606;28;20129;-62
2023/09/14 00:58:14;;;;;;;35.38;27.25;;;;;;;29.92;nan;97895.59;5070717;28;20159;-63
2023/09/14 01:00:46;;;;;;;33.03;25.65;;;;;;;29.88;nan;97905.59;5056075;28;20059;-62
2023/09/14 01:03:16;;;;;;;38.25;27.85;;;;;;;29.86;nan;97913.31;5082712;28;20044;-62
2023/09/14 01:05:48;;;;;;;32.55;27.42;;;;;;;29.76;nan;97920.00;5083851;28;20091;-62
2023/09/14 01:08:18;;;;;;;32.80;28.80;;;;;;;29.87;nan;97921.19;5080080;28;20538;-62
2023/09/14 01:10:48;;;;;;;35.38;28.30;;;;;;;29.88;nan;97933.69;5064273;28;20052;-62
2023/09/14 01:13:37;;;;;;;31.52;27.48;;;;;;;29.95;nan;97933.16;5047342;28;20456;-62
2023/09/14 01:16:31;;;;;;;33.25;27.75;;;;;;;29.98;nan;97940.69;5062907;28;20045;-62
2023/09/14 01:19:21;;;;;;;34.80;27.90;;;;;;;30.03;nan;97948.66;5060031;28;20036;-62
2023/09/14 01:22:12;;;;;;;32.15;27.38;;;;;;;30.05;nan;97956.53;5079475;28;20037;-62
2023/09/14 01:24:58;;;;;;;32.55;27.27;;;;;;;30.05;nan;97954.56;5071275;28;20490;-62
2023/09/14 01:27:28;;;;;;;33.83;27.40;;;;;;;30.10;nan;97957.09;5074057;28;20056;-62
2023/09/14 01:29:58;;;;;;;33.78;27.00;;;;;;;30.14;nan;97966.19;5063567;28;20158;-62
2023/09/14 01:32:30;;;;;;;34.30;27.93;;;;;;;30.16;nan;97972.13;5071505;28;20067;-62
2023/09/14 01:34:59;;;;;;;31.50;28.10;;;;;;;30.20;nan;97978.53;5061981;28;20051;-62
2023/09/14 01:37:29;;;;;;;31.52;27.13;;;;;;;30.27;nan;97980.72;5052221;28;20062;-62
2023/09/14 01:39:59;;;;;;;36.63;28.08;;;;;;;30.33;nan;97982.88;5060632;28;20730;-62
2023/09/14 01:42:30;;;;;;;40.65;27.77;;;;;;;30.39;nan;97983.44;5054977;28;20060;-62
2023/09/14 01:45:03;;;;;;;34.50;28.65;;;;;;;30.31;nan;97990.63;5041934;28;20056;-62
2023/09/14 01:47:33;;;;;;;34.35;28.38;;;;;;;30.29;nan;97992.09;5072007;28;20090;-62
2023/09/14 01:50:03;;;;;;;30.88;27.55;;;;;;;30.23;nan;97998.88;5080174;28;20044;-62
2023/09/14 01:52:33;;;;;;;30.27;27.00;;;;;;;30.28;nan;97996.75;5075544;28;20758;-62
2023/09/14 01:55:02;;;;;;;33.42;27.80;;;;;;;30.36;nan;97997.78;5064222;28;20056;-63
2023/09/14 01:57:34;;;;;;;31.73;26.67;;;;;;;30.41;nan;97996.75;5072568;28;20488;-62
2023/09/14 02:00:04;;;;;;;35.17;27.48;;;;;;;30.33;nan;97996.53;5043523;28;20531;-62
2023/09/14 02:02:40;;;;;;;34.20;27.10;;;;;;;30.42;nan;97998.38;5066640;28;20882;-62
2023/09/14 02:05:10;;;;;;;34.30;27.15;;;;;;;30.42;nan;98001.09;5059968;28;20143;-62
2023/09/14 02:07:40;;;;;;;34.00;27.45;;;;;;;30.38;nan;97998.25;5083544;28;20131;-62
2023/09/14 02:10:09;;;;;;;31.08;27.58;;;;;;;30.57;nan;98011.41;5078524;28;20040;-62
2023/09/14 02:12:38;;;;;;;34.05;27.33;;;;;;;30.65;nan;98013.25;5066401;28;20064;-62
2023/09/14 02:15:11;;;;;;;43.45;27.98;;;;;;;30.68;nan;98010.63;5062103;28;20071;-62
2023/09/14 02:17:43;;;;;;;33.00;27.02;;;;;;;30.57;nan;98011.41;5064189;28;20052;-62
2023/09/14 02:20:16;;;;;;;35.85;27.83;;;;;;;30.69;nan;98012.22;5075620;28;20052;-62
2023/09/14 02:22:45;;;;;;;34.20;26.67;;;;;;;30.77;nan;98014.03;5066246;28;20056;-62
2023/09/14 02:25:14;;;;;;;37.55;27.25;;;;;;;30.81;nan;98014.16;5063522;28;20056;-62
2023/09/14 02:28:01;;;;;;;35.15;27.77;;;;;;;30.91;nan;98008.22;5054558;28;20545;-62
2023/09/14 02:30:31;;;;;;;32.95;28.38;;;;;;;31.00;nan;98006.22;5059175;28;20854;-63
2023/09/14 02:33:00;;;;;;;31.83;28.17;;;;;;;31.06;nan;98010.31;5048718;28;20044;-62
2023/09/14 02:35:29;;;;;;;33.33;27.85;;;;;;;31.04;nan;98009.06;5041619;28;20102;-63
2023/09/14 02:37:59;;;;;;;44.38;29.98;;;;;;;31.09;nan;98009.63;5060418;28;20052;-62
2023/09/14 02:40:29;;;;;;;32.78;28.10;;;;;;;31.19;nan;98011.91;5055968;28;20063;-62
2023/09/14 02:42:59;;;;;;;37.58;29.35;;;;;;;31.26;nan;98007.78;5059686;28;20052;-62
2023/09/14 02:45:28;;;;;;;42.80;30.73;;;;;;;31.19;nan;98009.16;5062183;28;20733;-62
2023/09/14 02:47:58;;;;;;;43.88;31.83;;;;;;;31.48;nan;98019.03;5034593;28;20052;-63
2023/09/14 02:50:27;;;;;;;45.13;32.35;;;;;;;31.68;nan;98011.03;5039909;28;20880;-62
2023/09/14 02:52:56;;;;;;;47.65;32.38;;;;;;;31.57;nan;98014.25;5060363;28;20056;-62
2023/09/14 02:55:26;;;;;;;41.80;30.30;;;;;;;31.49;nan;98023.38;5062628;28;20649;-62
2023/09/14 02:57:55;;;;;;;34.10;26.63;;;;;;;31.61;nan;98023.34;5063845;28;20048;-63
2023/09/14 03:00:25;;;;;;;34.83;26.13;;;;;;;31.76;nan;98030.06;5063784;28;20048;-62
2023/09/14 03:02:54;;;;;;;30.35;23.88;;;;;;;31.87;nan;98022.91;5049010;28;20060;-62
2023/09/14 03:05:23;;;;;;;32.35;25.52;;;;;;;31.78;nan;98026.97;5082704;28;20048;-63
2023/09/14 03:07:53;;;;;;;29.20;23.33;;;;;;;31.76;nan;98016.34;5055586;28;20057;-62
2023/09/14 03:10:22;;;;;;;25.65;22.85;;;;;;;31.79;nan;98023.88;5048929;28;20055;-62
2023/09/14 03:12:54;;;;;;;27.27;22.80;;;;;;;32.08;nan;98015.31;5042145;28;20044;-62
2023/09/14 03:15:24;;;;;;;28.33;23.52;;;;;;;32.11;nan;98018.50;5066899;28;20060;-62
2023/09/14 03:17:53;;;;;;;27.60;24.60;;;;;;;31.98;nan;98026.78;5049616;28;20060;-63
2023/09/14 03:20:23;;;;;;;27.85;24.95;;;;;;;32.02;nan;98024.91;5040249;28;20435;-62
2023/09/14 03:22:53;;;;;;;30.60;25.70;;;;;;;32.04;nan;98027.31;5075414;28;20056;-61
2023/09/14 03:25:23;;;;;;;33.05;27.05;;;;;;;32.18;nan;98032.41;5084900;28;20131;-62
2023/09/14 03:27:52;;;;;;;39.83;29.63;;;;;;;32.07;nan;98037.56;5075012;28;20114;-63
2023/09/14 03:30:21;;;;;;;46.08;31.23;;;;;;;32.00;nan;98042.84;5060500;28;20063;-62
2023/09/14 03:32:51;;;;;;;40.72;32.28;;;;;;;31.91;nan;98051.22;5082781;28;20054;-62
2023/09/14 03:35:20;;;;;;;35.72;29.02;;;;;;;32.28;nan;98051.88;5077029;28;20062;-62
2023/09/14 03:37:50;;;;;;;39.25;29.65;;;;;;;32.27;nan;98054.97;5062345;28;20063;-62
2023/09/14 03:40:19;;;;;;;33.22;27.40;;;;;;;32.40;nan;98048.28;5076656;28;20040;-63
2023/09/14 03:42:50;;;;;;;33.10;26.58;;;;;;;32.52;nan;98049.03;5078707;28;20039;-63
2023/09/14 03:45:19;;;;;;;40.65;28.63;;;;;;;32.33;nan;98057.13;5086080;28;20048;-62
2023/09/14 03:47:50;;;;;;;34.13;26.95;;;;;;;32.12;nan;98058.47;5066572;28;20059;-62
2023/09/14 03:50:20;;;;;;;34.28;27.73;;;;;;;32.53;nan;98067.03;5086138;28;20075;-62
2023/09/14 03:52:50;;;;;;;36.22;26.98;;;;;;;32.78;nan;98066.94;5083036;28;20051;-63
2023/09/14 03:55:19;;;;;;;36.67;26.20;;;;;;;32.60;nan;98065.66;5084978;28;20125;-63
2023/09/14 03:57:48;;;;;;;36.35;27.70;;;;;;;32.44;nan;98062.91;5083218;28;20048;-62
2023/09/14 04:00:18;;;;;;;31.52;26.80;;;;;;;32.30;nan;98057.03;5079357;28;20066;-62
2023/09/14 04:02:48;;;;;;;37.95;28.05;;;;;;;32.37;nan;98059.94;5059231;28;20048;-63
2023/09/14 04:05:18;;;;;;;30.80;26.33;;;;;;;32.35;nan;98051.28;5080719;28;20071;-63
2023/09/14 04:07:51;;;;;;;31.30;26.95;;;;;;;32.69;nan;98063.56;5077047;28;20053;-63
2023/09/14 04:10:21;;;;;;;29.15;24.92;;;;;;;32.69;nan;98058.88;5058633;28;20814;-63
2023/09/14 04:12:51;;;;;;;54.08;26.27;;;;;;;32.83;nan;98064.72;5067466;28;20079;-63
2023/09/14 04:15:20;;;;;;;30.75;24.70;;;;;;;32.97;nan;98056.06;5069990;28;20068;-63
2023/09/14 04:17:49;;;;;;;27.83;24.45;;;;;;;33.00;nan;98063.56;5070438;28;20063;-62
2023/09/14 04:20:19;;;;;;;31.35;23.80;;;;;;;32.96;nan;98068.19;5057047;28;20040;-63
2023/09/14 04:22:48;;;;;;;29.35;23.27;;;;;;;32.89;nan;98066.03;5075223;28;20479;-62
2023/09/14 04:25:18;;;;;;;31.20;23.77;;;;;;;32.95;nan;98055.59;5082844;28;20076;-62
2023/09/14 04:27:48;;;;;;;26.73;23.27;;;;;;;33.09;nan;98055.94;5075976;28;20067;-63
2023/09/14 04:30:18;;;;;;;29.15;24.25;;;;;;;33.04;nan;98048.00;5062654;28;20067;-63
2023/09/14 04:32:47;;;;;;;30.15;24.35;;;;;;;33.27;nan;98057.19;5078626;28;20502;-63
2023/09/14 04:35:16;;;;;;;28.58;24.33;;;;;;;33.29;nan;98059.56;5059337;28;20041;-63
2023/09/14 04:37:45;;;;;;;31.50;24.65;;;;;;;33.16;nan;98055.34;5058254;28;20055;-63
2023/09/14 04:40:15;;;;;;;28.88;23.52;;;;;;;33.25;nan;98047.72;5074879;28;20046;-64
2023/09/14 04:42:47;;;;;;;27.33;24.42;;;;;;;33.51;nan;98045.16;5062114;28;20075;-64
2023/09/14 04:45:16;;;;;;;30.13;23.65;;;;;;;33.68;nan;98050.28;5084296;28;20067;-63
2023/09/14 04:47:45;;;;;;;30.55;24.60;;;;;;;33.88;nan;98053.06;5077287;28;20125;-62
2023/09/14 04:50:15;;;;;;;30.17;24.40;;;;;;;34.07;nan;98055.81;5076555;28;20138;-63
2023/09/14 04:52:44;;;;;;;27.48;24.27;;;;;;;33.95;nan;98059.47;5062424;28;20475;-63
2023/09/14 04:55:14;;;;;;;25.45;22.67;;;;;;;34.51;nan;98059.03;5090404;28;20143;-63
2023/09/14 04:57:43;;;;;;;27.30;23.33;;;;;;;34.49;nan;98056.63;5083003;28;20063;-63
2023/09/14 05:00:14;;;;;;;31.98;24.63;;;;;;;34.40;nan;98055.28;5057726;28;20059;-63
2023/09/14 05:02:45;;;;;;;30.20;22.88;;;;;;;34.59;nan;98052.50;5061239;28;20051;-63
2023/09/14 05:05:15;;;;;;;27.90;20.95;;;;;;;34.58;nan;98053.66;5079157;28;20419;-63
2023/09/14 05:07:45;;;;;;;25.92;23.10;;;;;;;34.90;nan;98054.22;5082168;28;20111;-64
2023/09/14 05:10:16;;;;;;;30.17;22.23;;;;;;;34.66;nan;98055.38;5065608;28;20041;-63
2023/09/14 05:12:45;;;;;;;24.08;20.73;;;;;;;34.53;nan;98057.50;5067433;28;20752;-63
2023/09/14 05:15:17;;;;;;;29.42;23.10;;;;;;;34.85;nan;98060.03;5065082;28;20147;-63
2023/09/14 05:17:47;;;;;;;;;;;;;;;34.74;nan;98061.81;5065027;28;20086;-63
2023/09/14 05:20:17;;;;;;;28.63;22.85;;;;;;;35.24;nan;98063.44;5070799;28;19925;-63
2023/09/14 05:22:47;;;;;;;31.27;23.02;;;;;;;35.52;nan;98058.38;5069856;28;20048;-63
2023/09/14 05:25:17;;;;;;;27.65;21.88;;;;;;;35.00;nan;98057.16;5053867;28;20568;-63
2023/09/14 05:27:46;;;;;;;23.67;20.73;;;;;;;35.38;nan;98058.16;5067797;28;20148;-63
2023/09/14 05:30:21;;;;;;;34.08;22.73;;;;;;;35.63;nan;98058.53;5063209;28;20058;-63
2023/09/14 05:32:51;;;;;;;27.95;21.90;;;;;;;35.41;nan;98049.94;5051835;28;20052;-64
2023/09/14 05:35:20;;;;;;;25.80;21.77;;;;;;;35.88;nan;98049.44;5059325;28;20049;-63
2023/09/14 05:37:51;;;;;;;28.20;20.77;;;;;;;36.02;nan;98044.09;5075890;28;20044;-63
2023/09/14 05:40:21;;;;;;;23.98;19.80;;;;;;;36.07;nan;98051.22;5057276;28;20067;-63
2023/09/14 05:42:50;;;;;;;28.13;20.17;;;;;;;35.89;nan;98045.47;5073022;28;20052;-63
2023/09/14 05:45:20;;;;;;;25.10;20.25;;;;;;;35.91;nan;98045.13;5080909;28;20570;-63
2023/09/14 05:47:49;;;;;;;27.85;20.45;;;;;;;35.96;nan;98044.78;5064310;28;20139;-64
2023/09/14 05:50:18;;;;;;;22.10;19.60;;;;;;;36.11;nan;98052.06;5079411;28;20056;-64
2023/09/14 05:52:48;;;;;;;20.45;18.42;;;;;;;36.14;nan;98051.34;5066708;28;20044;-63
2023/09/14 05:55:17;;;;;;;27.63;21.58;;;;;;;35.72;nan;98039.75;5069473;28;20594;-63
2023/09/14 05:57:47;;;;;;;30.33;20.83;;;;;;;35.75;nan;98037.06;5061352;28;20040;-63
2023/09/14 06:00:18;;;;;;;30.20;20.10;;;;;;;35.42;nan;98037.75;5048583;28;20045;-63
2023/09/14 06:02:53;;;;;;;28.40;20.35;;;;;;;35.63;nan;98033.72;5056178;28;20133;-63
2023/09/14 06:05:22;;;;;;;23.48;18.48;;;;;;;36.24;nan;98038.84;5075898;28;20545;-63
2023/09/14 06:07:57;;;;;;;27.17;19.38;;;;;;;35.67;nan;98035.38;5075187;28;20155;-63
2023/09/14 06:10:28;;;;;;;21.40;19.02;;;;;;;36.11;nan;98035.53;5062744;28;20047;-63
2023/09/14 06:12:58;;;;;;;28.02;19.73;;;;;;;36.00;nan;98038.16;5067162;28;20028;-63
2023/09/14 06:15:27;;;;;;;23.10;19.27;;;;;;;36.04;nan;98033.47;5077111;28;20574;-63
2023/09/14 06:17:57;;;;;;;30.77;19.75;;;;;;;35.82;nan;98028.06;5070569;28;20063;-63
2023/09/14 06:20:26;;;;;;;23.00;19.35;;;;;;;35.63;nan;98025.47;5058139;28;20056;-63
2023/09/14 06:22:55;;;;;;;22.33;18.80;;;;;;;36.07;nan;98023.63;5077462;28;20052;-63
2023/09/14 06:25:25;;;;;;;30.15;19.70;;;;;;;35.95;nan;98023.91;5076327;28;20047;-63
2023/09/14 06:27:54;;;;;;;22.58;20.10;;;;;;;36.11;nan;98016.22;5080622;28;20044;-63
2023/09/14 06:30:24;;;;;;;25.52;19.95;;;;;;;36.13;nan;98011.13;5072183;28;20156;-63
2023/09/14 06:32:53;;;;;;;22.38;19.58;;;;;;;36.27;nan;98018.78;5076007;28;20035;-64
2023/09/14 06:35:22;;;;;;;22.45;18.92;;;;;;;35.88;nan;98016.34;5084230;28;20135;-64
2023/09/14 06:38:08;;;;;;;22.92;18.83;;;;;;;35.84;nan;98017.47;5066588;28;20099;-64
2023/09/14 06:40:40;;;;;;;25.52;18.67;;;;;;;35.67;nan;98009.78;5086271;28;20044;-64
2023/09/14 06:43:09;;;;;;;21.65;18.25;;;;;;;35.96;nan;98003.44;5077603;28;20040;-64
2023/09/14 06:45:39;;;;;;;21.35;18.77;;;;;;;35.99;nan;97988.88;5076248;28;20047;-63
2023/09/14 06:48:08;;;;;;;22.75;18.45;;;;;;;36.03;nan;97984.22;5080706;28;20048;-64
2023/09/14 06:50:38;;;;;;;23.05;19.73;;;;;;;36.34;nan;97985.72;5085787;28;20048;-63
2023/09/14 06:53:08;;;;;;;25.55;18.10;;;;;;;36.39;nan;97986.19;5068969;28;20059;-64
2023/09/14 06:55:39;;;;;;;24.73;18.83;;;;;;;36.18;nan;97982.44;5060182;28;20140;-63
2023/09/14 06:58:25;;;;;;;21.70;19.27;;;;;;;36.12;nan;97981.19;5086618;28;20036;-63
2023/09/14 07:01:11;;;;;;;25.20;18.15;;;;;;;35.95;nan;97969.56;5077293;28;20067;-63
2023/09/14 07:03:41;;;;;;;29.60;19.83;;;;;;;35.85;nan;97966.72;5078700;28;20063;-64
2023/09/14 07:06:10;;;;;;;20.88;18.70;;;;;;;35.75;nan;97964.63;5083818;28;20048;-63
2023/09/14 07:08:56;;;;;;;20.60;18.20;;;;;;;35.95;nan;97963.25;5075944;28;20043;-63
2023/09/14 07:11:26;;;;;;;22.08;18.83;;;;;;;35.87;nan;97967.09;5061605;28;20143;-63
2023/09/14 07:13:58;;;;;;;21.10;18.70;;;;;;;36.00;nan;97965.66;5076103;28;20052;-66
2023/09/14 07:16:27;;;;;;;22.52;18.15;;;;;;;35.66;nan;97958.59;5075059;28;20143;-64
2023/09/14 07:18:58;;;;;;;24.48;18.05;;;;;;;35.94;nan;97951.44;5069227;28;20048;-63
2023/09/14 07:21:32;;;;;;;20.30;18.38;;;;;;;36.21;nan;97952.13;5071892;28;20048;-63
2023/09/14 07:24:17;;;;;;;20.67;17.85;;;;;;;36.12;nan;97959.13;5077622;28;20100;-64
2023/09/14 07:26:47;;;;;;;24.55;18.27;;;;;;;36.36;nan;97961.34;5083558;28;20047;-63
2023/09/14 07:29:16;;;;;;;19.83;17.40;;;;;;;36.37;nan;97965.69;5085008;28;20074;-64
2023/09/14 07:31:46;;;;;;;21.65;18.05;;;;;;;36.12;nan;97940.59;5083259;28;20048;-64
2023/09/14 07:34:15;;;;;;;20.83;18.58;;;;;;;36.23;nan;97937.97;5086031;28;20091;-64
2023/09/14 07:36:46;;;;;;;21.58;18.02;;;;;;;35.79;nan;97929.63;5088830;28;20054;-66
2023/09/14 07:39:16;;;;;;;21.38;18.50;;;;;;;35.91;nan;97932.09;5087291;28;20393;-64
2023/09/14 07:41:49;;;;;;;22.58;18.15;;;;;;;36.06;nan;97933.84;5083195;28;20430;-63
2023/09/14 07:44:18;;;;;;;23.20;19.90;;;;;;;36.13;nan;97928.41;5085274;28;20039;-63
2023/09/14 07:46:48;;;;;;;21.67;19.33;;;;;;;36.09;nan;97919.28;5090708;28;20052;-63
2023/09/14 07:49:17;;;;;;;26.52;19.00;;;;;;;35.99;nan;97909.72;5040230;28;20056;-65
2023/09/14 07:51:47;;;;;;;23.60;19.25;;;;;;;35.83;nan;97919.41;5066927;28;20040;-63
2023/09/14 07:54:16;;;;;;;27.15;20.05;;;;;;;35.54;nan;97907.25;5082038;28;20068;-63
2023/09/14 07:56:47;;;;;;;28.67;21.23;;;;;;;35.30;nan;97905.00;5072788;28;20475;-63
2023/09/14 07:59:16;;;;;;;28.67;21.55;;;;;;;35.16;nan;97905.59;5072149;28;20079;-63
2023/09/14 08:01:45;;;;;;;22.85;20.40;;;;;;;34.96;nan;97898.63;5076443;28;20475;-63
2023/09/14 08:04:15;;;;;;;27.02;21.27;;;;;;;34.69;nan;97889.59;5060478;28;20392;-62
2023/09/14 08:06:44;;;;;;;28.95;20.70;;;;;;;34.44;nan;97899.38;5075110;28;20056;-62
2023/09/14 08:09:14;;;;;;;23.60;19.95;;;;;;;34.28;nan;97900.31;5081782;28;20048;-62
2023/09/14 08:11:43;;;;;;;27.80;21.63;;;;;;;34.19;nan;97899.78;5071450;28;20052;-65
2023/09/14 08:14:13;;;;;;;25.02;21.13;;;;;;;34.07;nan;97896.38;5071852;28;20040;-63
2023/09/14 08:16:42;;;;;;;23.10;19.80;;;;;;;33.92;nan;97887.09;5091793;28;20050;-62
2023/09/14 08:19:12;;;;;;;24.35;21.23;;;;;;;33.85;nan;97884.22;5090288;28;20522;-61
2023/09/14 08:21:41;;;;;;;40.72;23.92;;;;;;;33.49;nan;97890.97;5088404;28;20534;-62
2023/09/14 08:24:10;;;;;;;44.95;24.67;;;;;;;32.83;nan;97886.41;5081503;28;20349;-63
2023/09/14 08:26:40;;;;;;;35.03;27.73;;;;;;;32.03;nan;97886.00;5073204;28;20052;-62
2023/09/14 08:29:10;;;;;;;37.67;29.52;;;;;;;31.54;nan;97874.50;5073309;28;20058;-62
2023/09/14 08:31:42;;;;;;;35.47;27.50;;;;;;;31.24;nan;97865.84;5065490;28;20051;-63
2023/09/14 08:34:12;;;;;;;32.60;29.25;;;;;;;30.88;nan;97866.72;5075770;28;20041;-62
2023/09/14 08:36:42;;;;;;;35.80;31.10;;;;;;;30.97;nan;97877.53;5079267;28;20163;-62
2023/09/14 08:39:11;;;;;;;35.83;30.25;;;;;;;30.99;nan;97876.00;5079020;28;20051;-63
2023/09/14 08:41:44;;;;;;;33.20;29.33;;;;;;;30.94;nan;97869.97;5079517;28;20048;-63
2023/09/14 08:44:15;;;;;;;31.23;26.38;;;;;;;30.86;nan;97863.50;5076530;28;20059;-64
2023/09/14 08:46:46;;;;;;;29.98;26.25;;;;;;;30.98;nan;97859.97;5076591;28;20910;-65
2023/09/14 08:49:20;;;;;;;34.97;27.63;;;;;;;31.06;nan;97851.66;5070988;28;20054;-64
2023/09/14 08:51:50;;;;;;;28.30;23.52;;;;;;;30.55;nan;97850.47;5080465;28;20129;-65
2023/09/14 08:54:23;;;;;;;29.30;24.40;;;;;;;30.58;nan;97833.38;5077100;28;20754;-65
2023/09/14 08:56:53;;;;;;;25.45;22.02;;;;;;;30.65;nan;97830.06;5079861;28;20442;-64
2023/09/14 08:59:24;;;;;;;24.65;20.90;;;;;;;30.32;nan;97833.72;5064284;28;20045;-63
2023/09/14 09:01:57;;;;;;;22.90;20.50;;;;;;;30.40;nan;97840.22;5063633;28;20193;-64
2023/09/14 09:04:26;;;;;;;;;;;;;;;30.25;nan;97849.91;5065872;28;20048;-64
2023/09/14 09:06:56;;;;;;;20.05;17.95;;;;;;;30.54;nan;97839.88;5076962;28;19920;-63
2023/09/14 09:09:28;;;;;;;18.48;16.65;;;;;;;30.56;nan;97840.34;5071481;28;20075;-64
2023/09/14 09:11:58;;;;;;;21.80;17.80;;;;;;;30.70;nan;97838.03;5078308;28;20052;-64
2023/09/14 09:14:31;;;;;;;19.98;17.90;;;;;;;30.60;nan;97822.09;5076511;28;20139;-64
2023/09/14 09:17:01;;;;;;;20.88;18.33;;;;;;;30.55;nan;97819.59;5076063;28;20308;-64
2023/09/14 09:19:30;;;;;;;20.45;15.95;;;;;;;30.41;nan;97824.59;5079982;28;20040;-64
2023/09/14 09:22:03;;;;;;;16.30;14.60;;;;;;;30.43;nan;97831.31;5074782;28;20060;-64
2023/09/14 09:24:34;;;;;;;17.70;15.60;;;;;;;30.66;nan;97820.72;5066755;28;20148;-64
2023/09/14 09:27:28;;;;;;;17.58;15.45;;;;;;;30.54;nan;97805.13;5056553;28;20056;-64
2023/09/14 09:29:59;;;;;;;20.95;16.52;;;;;;;30.40;nan;97793.75;5065138;28;20142;-65
2023/09/14 09:32:28;;;;;;;18.08;16.15;;;;;;;30.46;nan;97791.59;5059527;28;20089;-64
2023/09/14 09:35:15;;;;;;;18.88;14.77;;;;;;;30.49;nan;97789.00;5073480;28;20044;-64
2023/09/14 09:37:45;;;;;;;17.10;14.18;;;;;;;30.26;nan;97785.91;5042385;28;20117;-65
2023/09/14 09:40:20;;;;;;;18.55;14.75;;;;;;;30.32;nan;97800.13;5068838;28;20048;-64
2023/09/14 09:42:50;;;;;;;18.63;15.25;;;;;;;30.33;nan;97804.47;5074867;28;20139;-64
2023/09/14 09:45:20;;;;;;;32.83;22.95;;;;;;;30.38;nan;97803.44;5058903;28;20052;-64
2023/09/14 09:47:51;;;;;;;34.17;23.05;;;;;;;30.31;nan;97791.16;5059109;28;20187;-64
2023/09/14 09:50:22;;;;;;;32.50;21.02;;;;;;;30.15;nan;97803.09;5065860;28;20421;-64
2023/09/14 09:52:51;;;;;;;26.60;21.35;;;;;;;30.01;nan;97814.38;5075820;28;20138;-64
2023/09/14 09:55:28;;;;;;;27.20;24.35;;;;;;;29.99;nan;97824.03;5070348;28;20063;-64
2023/09/14 09:57:59;;;;;;;30.70;23.65;;;;;;;29.82;nan;97806.72;5079678;28;20051;-65
2023/09/14 10:00:36;;;;;;;26.40;20.73;;;;;;;29.77;nan;97789.75;5068460;28;20446;-64
2023/09/14 10:03:06;;;;;;;21.63;19.23;;;;;;;29.70;nan;97784.03;5063328;28;20501;-64
2023/09/14 10:05:45;;;;;;;21.85;18.20;;;;;;;29.28;nan;97799.72;5078502;28;20044;-64
2023/09/14 10:08:20;;;;;;;22.85;17.65;;;;;;;29.38;nan;97804.81;5079676;28;20097;-63
2023/09/14 10:10:52;;;;;;;20.45;18.30;;;;;;;29.45;nan;97796.84;5079568;28;20071;-64
2023/09/14 10:13:23;;;;;;;18.75;16.40;;;;;;;29.40;nan;97783.44;5077761;28;20607;-64
2023/09/14 10:15:54;;;;;;;18.15;16.20;;;;;;;29.30;nan;97765.53;5073960;28;20593;-64
2023/09/14 10:18:25;;;;;;;16.02;14.27;;;;;;;29.31;nan;97750.78;5067090;28;20040;-63
2023/09/14 10:20:56;;;;;;;16.63;14.80;;;;;;;29.12;nan;97744.25;5081027;28;20053;-65
2023/09/14 10:23:43;;;;;;;16.27;14.57;;;;;;;29.05;nan;97741.25;5078866;28;20128;-64
2023/09/14 10:26:16;;;;;;;17.42;15.57;;;;;;;28.99;nan;97737.91;5081924;28;20055;-65
2023/09/14 10:28:47;;;;;;;16.33;14.63;;;;;;;28.95;nan;97740.53;5083947;28;20106;-64
2023/09/14 10:31:18;;;;;;;17.92;16.02;;;;;;;28.82;nan;97740.81;5081372;28;20052;-64
2023/09/14 10:33:49;;;;;;;19.75;16.40;;;;;;;28.87;nan;97735.16;5085345;28;20058;-65
2023/09/14 10:36:20;;;;;;;19.58;17.52;;;;;;;28.87;nan;97735.97;5084387;28;20043;-65
2023/09/14 10:38:50;;;;;;;21.98;18.02;;;;;;;29.01;nan;97735.66;5077883;28;20131;-66
2023/09/14 10:41:20;;;;;;;20.40;18.10;;;;;;;29.02;nan;97726.38;5063692;28;20050;-66
2023/09/14 10:43:49;;;;;;;21.00;18.42;;;;;;;29.01;nan;97736.47;5086769;28;20159;-65
2023/09/14 10:46:27;;;;;;;21.45;18.73;;;;;;;28.99;nan;97735.19;5083218;28;20044;-65
2023/09/14 10:48:59;;;;;;;23.65;19.40;;;;;;;28.93;nan;97731.09;5080318;28;20040;-64
2023/09/14 10:51:29;;;;;;;22.45;19.70;;;;;;;28.98;nan;97728.16;5079435;28;20055;-63
2023/09/14 10:54:02;;;;;;;20.05;17.95;;;;;;;29.11;nan;97720.81;5075320;28;20043;-63
2023/09/14 10:56:36;;;;;;;21.00;17.73;;;;;;;29.17;nan;97712.06;5079462;28;20471;-64
2023/09/14 10:59:09;;;;;;;25.50;19.40;;;;;;;29.16;nan;97718.69;5073276;28;20109;-64
2023/09/14 11:01:48;;;;;;;20.75;18.42;;;;;;;29.13;nan;97722.06;5084879;28;20048;-64
2023/09/14 11:04:22;;;;;;;19.60;17.63;;;;;;;29.19;nan;97714.47;5082204;28;20059;-64
2023/09/14 11:06:55;;;;;;;21.40;18.15;;;;;;;29.07;nan;97711.72;5079974;28;20067;-64
2023/09/14 11:09:26;;;;;;;19.77;17.70;;;;;;;29.00;nan;97709.53;5079769;28;20503;-64
2023/09/14 11:11:56;;;;;;;20.17;17.17;;;;;;;29.04;nan;97694.09;5080140;28;20054;-64
2023/09/14 11:14:28;;;;;;;18.33;16.40;;;;;;;29.03;nan;97695.25;5081995;28;20129;-63
2023/09/14 11:17:02;;;;;;;18.85;16.50;;;;;;;29.11;nan;97682.63;5078432;28;20071;-65
2023/09/14 11:19:32;;;;;;;18.27;15.98;;;;;;;29.26;nan;97681.97;5080390;28;20055;-63
2023/09/14 11:22:25;;;;;;;21.55;16.98;;;;;;;29.24;nan;97682.31;4897704;28;10000894;-64
2023/09/14 11:24:56;;;;;;;23.20;17.65;;;;;;;29.28;nan;97679.72;5085474;28;20266;-64
2023/09/14 11:27:32;;;;;;;19.08;16.58;;;;;;;29.26;nan;97681.97;5088033;28;20056;-64
2023/09/14 11:30:16;;;;;;;23.02;17.00;;;;;;;29.32;nan;97676.00;5080929;28;20578;-65
2023/09/14 11:32:48;;;;;;;23.38;17.33;;;;;;;29.38;nan;97676.56;5081659;28;20048;-64
2023/09/14 11:35:40;;;;;;;;;;;;;;;29.32;nan;97672.47;5080013;28;20051;-64
2023/09/14 11:38:21;;;;;;;24.40;17.35;;;;;;;29.35;nan;97660.88;5079739;28;19934;-64
2023/09/14 11:40:56;;;;;;;19.02;16.83;;;;;;;29.39;nan;97661.78;5087559;28;20051;-64
2023/09/14 11:44:05;;;;;;;19.92;16.50;;;;;;;29.40;nan;97653.25;5072539;28;20071;-65
2023/09/14 11:46:58;;;;;;;21.50;16.55;;;;;;;29.36;nan;97652.34;5075714;28;20051;-64
2023/09/14 11:49:33;;;;;;;21.92;17.13;;;;;;;29.60;nan;97639.84;5084615;28;20051;-65
2023/09/14 11:52:03;;;;;;;25.02;16.15;;;;;;;29.58;nan;97645.66;5092493;28;20164;-64
2023/09/14 11:54:35;;;;;;;23.80;17.92;;;;;;;29.66;nan;97641.19;5078823;28;20036;-64